createdAt,value
2022-10-28T00:01:19.985Z,6.22
2022-10-28T00:03:50.507Z,6.29
2022-10-28T00:06:20.997Z,6.30
2022-10-28T00:08:48.921Z,6.27
2022-10-28T00:11:19.273Z,6.25
2022-10-28T00:13:47.396Z,6.24
2022-10-28T00:16:18.180Z,6.24
2022-10-28T00:18:45.962Z,6.18
2022-10-28T00:21:18.033Z,6.18
2022-10-28T00:23:45.727Z,6.14
2022-10-28T00:26:19.272Z,6.19
2022-10-28T00:28:52.336Z,6.22
2022-10-28T00:31:21.744Z,6.30
2022-10-28T00:33:52.086Z,6.32
2022-10-28T00:36:22.938Z,6.34
2022-10-28T00:38:52.181Z,6.28
2022-10-28T00:41:25.288Z,6.34
2022-10-28T00:43:55.858Z,6.38
2022-10-28T00:46:23.286Z,6.43
2022-10-28T00:48:55.878Z,6.45
2022-10-28T00:51:25.836Z,6.50
2022-10-28T00:53:55.449Z,6.52
2022-10-28T00:56:27.460Z,6.52
2022-10-28T00:58:59.659Z,6.58
2022-10-28T01:01:27.296Z,6.61
2022-10-28T01:03:56.815Z,6.59
2022-10-28T01:06:26.855Z,6.65
2022-10-28T01:08:57.571Z,6.69
2022-10-28T01:11:42.617Z,6.69
2022-10-28T01:14:16.251Z,6.71
2022-10-28T01:17:17.317Z,6.82
2022-10-28T01:19:44.913Z,6.74
2022-10-28T01:22:18.861Z,6.76
2022-10-28T01:25:08.611Z,6.85
2022-10-28T01:28:23.368Z,6.86
2022-10-28T01:31:24.652Z,6.87
2022-10-28T01:34:12.317Z,6.85
2022-10-28T01:36:54.134Z,6.84
2022-10-28T01:39:49.137Z,6.94
2022-10-28T01:42:28.407Z,6.93
2022-10-28T01:45:21.509Z,7.03
2022-10-28T01:48:41.559Z,7.02
2022-10-28T01:51:22.812Z,6.93
2022-10-28T01:53:55.500Z,6.93
2022-10-28T01:56:28.457Z,6.92
2022-10-28T01:58:58.025Z,6.93
2022-10-28T02:01:28.054Z,6.97
2022-10-28T02:03:56.684Z,7.01
2022-10-28T02:06:27.308Z,7.03
2022-10-28T02:09:30.459Z,7.09
2022-10-28T02:12:27.086Z,7.12
2022-10-28T02:15:47.165Z,7.13
2022-10-28T02:18:20.366Z,6.98
2022-10-28T02:21:49.269Z,7.03
2022-10-28T02:24:23.229Z,6.91
2022-10-28T02:27:00.937Z,6.92
2022-10-28T02:29:37.982Z,6.84
2022-10-28T02:32:11.572Z,6.84
2022-10-28T02:34:47.101Z,6.91
2022-10-28T02:37:26.788Z,6.86
2022-10-28T02:39:59.214Z,6.90
2022-10-28T02:42:35.300Z,6.90
2022-10-28T02:45:16.221Z,6.90
2022-10-28T02:48:00.582Z,6.94
2022-10-28T02:50:36.296Z,6.92
2022-10-28T02:53:11.377Z,6.91
2022-10-28T02:55:43.685Z,6.93
2022-10-28T02:58:12.035Z,6.93
2022-10-28T03:00:47.305Z,6.91
2022-10-28T03:03:14.759Z,6.83
2022-10-28T03:05:42.230Z,6.86
2022-10-28T03:08:09.655Z,6.82
2022-10-28T03:10:37.168Z,6.83
2022-10-28T03:13:04.572Z,6.85
2022-10-28T03:15:32.105Z,6.83
2022-10-28T03:17:59.518Z,6.80
2022-10-28T03:20:26.976Z,6.87
2022-10-28T03:22:54.643Z,6.91
2022-10-28T03:25:22.475Z,6.88
2022-10-28T03:27:49.905Z,6.93
2022-10-28T03:30:18.591Z,6.93
2022-10-28T03:32:46.029Z,6.89
2022-10-28T03:35:13.590Z,6.88
2022-10-28T03:37:43.452Z,6.89
2022-10-28T03:40:12.168Z,6.91
2022-10-28T03:42:43.235Z,6.92
2022-10-28T03:45:11.299Z,6.95
2022-10-28T03:47:39.758Z,6.97
2022-10-28T03:50:07.750Z,6.94
2022-10-28T03:52:35.205Z,6.87
2022-10-28T03:55:02.719Z,6.84
2022-10-28T03:57:33.560Z,6.77
2022-10-28T04:00:01.133Z,6.77
2022-10-28T04:02:32.056Z,6.80
2022-10-28T04:04:59.566Z,6.83
2022-10-28T04:07:27.016Z,6.81
2022-10-28T04:09:54.611Z,6.83
2022-10-28T04:12:22.090Z,6.85
2022-10-28T04:14:49.543Z,6.86
2022-10-28T04:17:17.695Z,6.82
2022-10-28T04:19:45.185Z,6.78
2022-10-28T04:22:12.662Z,6.80
2022-10-28T04:24:40.236Z,6.79
2022-10-28T04:27:07.676Z,6.85
2022-10-28T04:29:35.192Z,6.89
2022-10-28T04:32:02.940Z,6.93
2022-10-28T04:34:30.450Z,6.94
2022-10-28T04:36:58.040Z,6.91
2022-10-28T04:39:25.524Z,6.97
2022-10-28T04:41:53.175Z,6.99
2022-10-28T04:44:20.588Z,7.02
2022-10-28T04:46:48.149Z,7.03
2022-10-28T04:49:15.588Z,7.09
2022-10-28T04:51:43.113Z,7.08
2022-10-28T04:54:10.633Z,7.12
2022-10-28T04:56:38.246Z,7.14
2022-10-28T04:59:05.656Z,7.09
2022-10-28T05:01:33.241Z,7.14
2022-10-28T05:04:00.778Z,7.11
2022-10-28T05:06:28.417Z,7.07
2022-10-28T05:08:55.976Z,7.05
2022-10-28T05:11:23.452Z,7.06
2022-10-28T05:13:53.225Z,7.06
2022-10-28T05:16:21.331Z,7.05
2022-10-28T05:18:48.788Z,7.04
2022-10-28T05:21:17.021Z,7.07
2022-10-28T05:23:44.509Z,7.08
2022-10-28T05:26:12.007Z,7.08
2022-10-28T05:28:39.560Z,7.16
2022-10-28T05:31:07.324Z,7.21
2022-10-28T05:33:34.857Z,7.21
2022-10-28T05:36:02.402Z,7.23
2022-10-28T05:38:30.012Z,7.20
2022-10-28T05:40:57.546Z,7.23
2022-10-28T05:43:25.108Z,7.18
2022-10-28T05:45:56.648Z,7.17
2022-10-28T05:48:26.104Z,7.14
2022-10-28T05:50:53.695Z,7.12
2022-10-28T05:53:21.184Z,7.08
2022-10-28T05:55:48.821Z,7.07
2022-10-28T05:58:16.733Z,7.11
2022-10-28T06:00:44.241Z,7.20
2022-10-28T06:03:12.588Z,7.27
2022-10-28T06:05:45.165Z,7.36
2022-10-28T06:08:13.589Z,7.35
2022-10-28T06:10:54.019Z,7.41
2022-10-28T06:13:21.676Z,7.46
2022-10-28T06:15:50.810Z,7.53
2022-10-28T06:18:19.025Z,7.59
2022-10-28T06:20:54.328Z,7.55
2022-10-28T06:23:23.108Z,7.52
2022-10-28T06:25:54.980Z,7.50
2022-10-28T06:28:22.661Z,7.47
2022-10-28T06:30:50.120Z,7.52
2022-10-28T06:33:17.892Z,7.56
2022-10-28T06:35:45.392Z,7.58
2022-10-28T06:38:12.924Z,7.61
2022-10-28T06:40:40.520Z,7.64
2022-10-28T06:43:08.485Z,7.63
2022-10-28T06:45:35.955Z,7.66
2022-10-28T06:48:06.652Z,7.62
2022-10-28T06:51:23.485Z,7.71
2022-10-28T06:54:59.535Z,7.75
2022-10-28T06:58:47.495Z,7.83
2022-10-28T07:02:32.888Z,7.80
2022-10-28T07:05:00.532Z,7.65
2022-10-28T07:07:28.122Z,7.67
2022-10-28T07:09:55.635Z,7.70
2022-10-28T07:12:23.074Z,7.73
2022-10-28T07:14:50.580Z,7.82
2022-10-28T07:17:18.074Z,7.85
2022-10-28T07:19:45.495Z,7.86
2022-10-28T07:22:15.486Z,7.89
2022-10-28T07:24:43.047Z,7.93
2022-10-28T07:27:10.692Z,8.07
2022-10-28T07:29:38.192Z,8.28
2022-10-28T07:32:06.082Z,8.42
2022-10-28T07:34:33.606Z,8.48
2022-10-28T07:37:01.079Z,8.52
2022-10-28T07:39:28.588Z,8.61
2022-10-28T07:41:56.055Z,8.62
2022-10-28T07:44:23.562Z,8.61
2022-10-28T07:46:54.263Z,8.69
2022-10-28T07:49:24.847Z,8.73
2022-10-28T07:51:52.507Z,8.78
2022-10-28T07:54:20.007Z,8.87
2022-10-28T07:56:47.464Z,8.93
2022-10-28T07:59:14.951Z,8.99
2022-10-28T08:01:42.632Z,9.13
2022-10-28T08:04:10.218Z,9.19
2022-10-28T08:06:37.815Z,9.36
2022-10-28T08:09:05.288Z,9.44
2022-10-28T08:11:32.748Z,9.54
2022-10-28T08:14:02.654Z,9.74
2022-10-28T08:16:31.278Z,9.91
2022-10-28T08:18:58.776Z,10.07
2022-10-28T08:21:27.296Z,10.18
2022-10-28T08:23:55.378Z,10.36
2022-10-28T08:26:23.454Z,10.45
2022-10-28T08:28:50.856Z,10.49
2022-10-28T08:31:18.347Z,10.55
2022-10-28T08:33:45.973Z,10.58
2022-10-28T08:36:15.933Z,10.59
2022-10-28T08:38:45.759Z,10.63
2022-10-28T08:41:22.298Z,10.73
2022-10-28T08:43:57.084Z,10.72
2022-10-28T08:46:37.094Z,10.68
2022-10-28T08:49:12.204Z,10.61
2022-10-28T08:51:45.294Z,10.60
2022-10-28T08:54:21.397Z,10.63
2022-10-28T08:56:51.934Z,10.82
2022-10-28T08:59:24.441Z,11.08
2022-10-28T09:02:22.574Z,12.03
2022-10-28T09:05:07.720Z,13.55
2022-10-28T09:07:37.564Z,14.92
2022-10-28T09:10:06.339Z,15.08
2022-10-28T09:12:49.231Z,14.94
2022-10-28T09:15:25.366Z,14.70
2022-10-28T09:18:10.819Z,14.80
2022-10-28T09:20:54.675Z,14.96
2022-10-28T09:23:34.254Z,14.82
2022-10-28T09:26:13.930Z,14.55
2022-10-28T09:31:42.737Z,14.58
2022-10-28T09:34:30.335Z,16.13
2022-10-28T09:37:15.472Z,17.54
2022-10-28T09:39:47.181Z,18.81
2022-10-28T09:42:27.951Z,20.11
2022-10-28T09:45:02.339Z,20.51
2022-10-28T09:47:37.543Z,20.58
2022-10-28T09:50:13.818Z,20.04
2022-10-28T09:52:56.618Z,20.26
2022-10-28T09:55:24.559Z,19.97
2022-10-28T09:57:52.467Z,19.65
2022-10-28T10:00:20.525Z,19.30
2022-10-28T10:02:49.237Z,19.32
2022-10-28T10:05:18.718Z,18.74
2022-10-28T10:07:51.251Z,18.22
2022-10-28T10:10:29.068Z,18.01
2022-10-28T10:12:59.853Z,17.49
2022-10-28T10:15:33.375Z,16.48
2022-10-28T10:18:04.131Z,15.44
2022-10-28T10:21:01.434Z,14.80
2022-10-28T10:23:30.604Z,13.78
2022-10-28T10:26:12.246Z,13.24
2022-10-28T10:28:48.992Z,12.75
2022-10-28T10:31:21.213Z,12.53
2022-10-28T10:33:52.074Z,12.38
2022-10-28T10:36:23.724Z,12.38
2022-10-28T10:38:54.514Z,12.41
2022-10-28T10:41:39.631Z,12.57
2022-10-28T10:44:22.373Z,12.72
2022-10-28T10:47:06.486Z,12.50
2022-10-28T10:49:36.059Z,12.12
2022-10-28T10:52:10.222Z,12.04
2022-10-28T10:54:38.442Z,11.81
2022-10-28T10:57:22.580Z,11.78
2022-10-28T10:59:53.590Z,11.52
2022-10-28T11:02:23.816Z,11.35
2022-10-28T11:05:04.675Z,11.16
2022-10-28T11:07:33.042Z,10.96
2022-10-28T11:10:02.014Z,10.85
2022-10-28T11:12:32.211Z,10.82
2022-10-28T11:15:05.308Z,10.74
2022-10-28T11:17:34.807Z,10.74
2022-10-28T11:20:27.816Z,10.91
2022-10-28T11:23:16.171Z,10.86
2022-10-28T11:25:50.734Z,10.80
2022-10-28T11:28:20.949Z,10.80
2022-10-28T11:31:17.800Z,10.89
2022-10-28T11:34:11.287Z,10.86
2022-10-28T11:36:57.044Z,10.82
2022-10-28T11:39:34.911Z,10.93
2022-10-28T11:42:22.721Z,10.99
2022-10-28T11:44:50.131Z,11.12
2022-10-28T11:47:43.956Z,10.82
2022-10-28T11:50:25.121Z,10.80
2022-10-28T11:53:19.369Z,10.80
2022-10-28T11:56:21.648Z,10.74
2022-10-28T11:58:58.175Z,10.70
2022-10-28T12:01:38.900Z,10.60
2022-10-28T12:04:26.899Z,10.66
2022-10-28T12:07:11.757Z,10.85
2022-10-28T12:09:45.301Z,10.71
2022-10-28T12:12:29.026Z,10.69
2022-10-28T12:15:12.266Z,10.65
2022-10-28T12:17:47.034Z,10.61
2022-10-28T12:20:31.542Z,10.66
2022-10-28T12:23:03.210Z,10.58
2022-10-28T12:25:39.900Z,10.62
2022-10-28T12:28:32.476Z,10.53
2022-10-28T12:31:01.866Z,10.52
2022-10-28T12:33:39.565Z,10.56
2022-10-28T12:36:07.038Z,10.52
2022-10-28T12:38:43.019Z,10.46
2022-10-28T12:41:48.138Z,10.54
2022-10-28T12:44:26.455Z,10.46
2022-10-28T12:46:57.576Z,10.42
2022-10-28T12:49:35.928Z,10.46
2022-10-28T12:52:16.666Z,10.40
2022-10-28T12:54:54.353Z,10.39
2022-10-28T12:57:25.133Z,10.33
2022-10-28T12:59:59.967Z,10.26
2022-10-28T13:02:35.677Z,10.29
2022-10-28T13:05:04.886Z,10.24
2022-10-28T13:07:46.002Z,10.34
2022-10-28T13:10:28.162Z,10.34
2022-10-28T13:13:07.970Z,10.34
2022-10-28T13:16:08.691Z,10.46
2022-10-28T13:18:41.855Z,10.36
2022-10-28T13:21:38.286Z,10.36
2022-10-28T13:24:13.212Z,10.29
2022-10-28T13:26:45.732Z,10.28
2022-10-28T13:29:29.326Z,10.30
2022-10-28T13:31:56.910Z,10.26
2022-10-28T13:34:34.114Z,10.24
2022-10-28T13:37:06.051Z,10.35
2022-10-28T13:39:36.221Z,10.17
2022-10-28T13:42:13.030Z,10.22
2022-10-28T13:44:55.498Z,10.16
2022-10-28T13:47:34.392Z,10.18
2022-10-28T13:50:08.506Z,10.17
2022-10-28T13:53:18.050Z,10.24
2022-10-28T13:55:46.574Z,10.10
2022-10-28T13:58:31.958Z,10.14
2022-10-28T14:01:39.747Z,10.17
2022-10-28T14:04:32.126Z,10.12
2022-10-28T14:07:06.555Z,10.09
2022-10-28T14:09:36.000Z,10.07
2022-10-28T14:12:17.818Z,10.13
2022-10-28T14:15:14.591Z,10.16
2022-10-28T14:18:00.921Z,10.08
2022-10-28T14:20:43.542Z,10.05
2022-10-28T14:23:22.930Z,10.13
2022-10-28T14:25:50.423Z,10.10
2022-10-28T14:28:29.914Z,10.10
2022-10-28T14:31:10.441Z,10.09
2022-10-28T14:33:46.937Z,10.05
2022-10-28T14:36:20.269Z,10.00
2022-10-28T14:38:53.382Z,9.98
2022-10-28T14:41:55.458Z,9.98
2022-10-28T14:44:40.973Z,9.96
2022-10-28T14:47:50.429Z,10.01
2022-10-28T14:50:28.477Z,9.98
2022-10-28T14:52:57.374Z,9.93
2022-10-28T14:55:31.178Z,9.94
2022-10-28T14:58:24.347Z,10.00
2022-10-28T15:01:17.388Z,9.97
2022-10-28T15:03:54.697Z,9.88
2022-10-28T15:06:39.480Z,9.89
2022-10-28T15:09:19.839Z,9.85
2022-10-28T15:12:00.824Z,9.88
2022-10-28T15:14:55.940Z,9.89
2022-10-28T15:17:27.053Z,9.83
2022-10-28T15:19:59.612Z,9.84
2022-10-28T15:22:32.328Z,9.83
2022-10-28T15:25:02.486Z,9.84
2022-10-28T15:27:37.205Z,9.86
2022-10-28T15:30:14.130Z,9.84
2022-10-28T15:32:41.925Z,9.83
2022-10-28T15:35:30.692Z,9.98
2022-10-28T15:38:01.146Z,9.87
2022-10-28T15:40:35.500Z,9.86
2022-10-28T15:43:17.042Z,9.95
2022-10-28T15:45:46.220Z,9.84
2022-10-28T15:48:19.499Z,9.77
2022-10-28T15:51:14.592Z,9.80
2022-10-28T15:53:46.348Z,9.72
2022-10-28T15:56:30.183Z,9.80
2022-10-28T15:59:07.331Z,9.81
2022-10-28T16:01:40.013Z,9.72
2022-10-28T16:04:33.689Z,9.73
2022-10-28T16:07:07.963Z,9.65
2022-10-28T16:09:42.611Z,9.69
2022-10-28T16:12:36.249Z,9.73
2022-10-28T16:15:04.060Z,9.59
2022-10-28T16:17:36.427Z,9.67
2022-10-28T16:20:27.618Z,9.76
2022-10-28T16:22:55.396Z,9.66
2022-10-28T16:25:23.188Z,9.67
2022-10-28T16:27:52.418Z,9.66
2022-10-28T16:30:20.162Z,9.62
2022-10-28T16:32:49.648Z,9.61
2022-10-28T16:35:22.901Z,9.61
2022-10-28T16:37:55.191Z,9.57
2022-10-28T16:43:23.798Z,9.71
2022-10-28T16:45:53.229Z,9.66
2022-10-28T16:48:24.205Z,9.67
2022-10-28T16:50:54.745Z,9.73
2022-10-28T16:53:22.912Z,9.68
2022-10-28T16:55:50.854Z,9.69
2022-10-28T16:58:21.812Z,9.64
2022-10-28T17:00:53.078Z,9.66
2022-10-28T17:03:20.520Z,9.63
2022-10-28T17:05:48.672Z,9.64
2022-10-28T17:08:16.202Z,9.61
2022-10-28T17:10:43.875Z,9.65
2022-10-28T17:13:16.001Z,9.70
2022-10-28T17:15:45.698Z,9.68
2022-10-28T17:18:15.163Z,9.72
2022-10-28T17:20:42.695Z,9.77
2022-10-28T17:23:10.355Z,9.73
2022-10-28T17:25:39.017Z,9.79
2022-10-28T17:28:06.554Z,9.82
2022-10-28T17:30:34.214Z,9.87
2022-10-28T17:33:01.772Z,9.89
2022-10-28T17:35:29.465Z,9.94
2022-10-28T17:37:58.850Z,9.92
2022-10-28T17:40:26.499Z,9.93
2022-10-28T17:42:54.632Z,9.92
2022-10-28T17:45:22.343Z,9.90
2022-10-28T17:47:51.031Z,9.87
2022-10-28T17:50:18.704Z,9.81
2022-10-28T17:52:46.254Z,9.84
2022-10-28T17:55:13.918Z,9.84
2022-10-28T17:57:41.540Z,9.79
2022-10-28T18:00:09.875Z,9.81
2022-10-28T18:02:40.554Z,9.78
2022-10-28T18:05:08.570Z,9.79
2022-10-28T18:07:36.031Z,9.76
2022-10-28T18:10:03.780Z,9.79
2022-10-28T18:12:31.405Z,9.79
2022-10-28T18:14:58.955Z,9.78
2022-10-28T18:17:26.646Z,9.82
2022-10-28T18:19:57.846Z,9.84
2022-10-28T18:24:57.978Z,9.78
2022-10-28T18:27:25.453Z,9.80
2022-10-28T18:29:53.050Z,9.86
2022-10-28T18:32:20.562Z,9.78
2022-10-28T18:34:48.136Z,9.74
2022-10-28T18:37:15.719Z,9.75
2022-10-28T18:39:43.262Z,9.72
2022-10-28T18:42:12.413Z,9.68
2022-10-28T18:44:41.498Z,9.63
2022-10-28T18:47:09.047Z,9.63
2022-10-28T18:49:36.602Z,9.66
2022-10-28T18:52:04.293Z,9.64
2022-10-28T18:54:34.346Z,9.67
2022-10-28T18:57:01.909Z,9.68
2022-10-28T18:59:29.424Z,9.67
2022-10-28T19:01:57.010Z,9.72
2022-10-28T19:04:24.650Z,9.66
2022-10-28T19:06:52.144Z,9.70
2022-10-28T19:09:19.586Z,9.69
2022-10-28T19:11:47.050Z,9.75
2022-10-28T19:14:14.623Z,9.79
2022-10-28T19:16:42.073Z,9.75
2022-10-28T19:19:09.636Z,9.79
2022-10-28T19:21:37.232Z,9.82
2022-10-28T19:24:05.480Z,9.87
2022-10-28T19:26:34.445Z,9.87
2022-10-28T19:29:04.887Z,9.89
2022-10-28T19:31:36.148Z,9.93
2022-10-28T19:34:06.364Z,9.91
2022-10-28T19:36:34.130Z,9.96
2022-10-28T19:39:03.357Z,9.99
2022-10-28T19:41:30.975Z,10.01
2022-10-28T19:44:01.357Z,10.04
2022-10-28T19:46:34.456Z,10.07
2022-10-28T19:49:05.358Z,10.12
2022-10-28T19:51:38.893Z,10.16
2022-10-28T19:54:11.218Z,10.10
2022-10-28T19:56:42.825Z,10.13
2022-10-28T19:59:10.426Z,10.20
2022-10-28T20:01:39.909Z,10.24
2022-10-28T20:04:09.969Z,10.24
2022-10-28T20:06:39.608Z,10.28
2022-10-28T20:09:07.622Z,10.30
2022-10-28T20:11:37.923Z,10.35
2022-10-28T20:14:12.021Z,10.39
2022-10-28T20:16:43.085Z,10.41
2022-10-28T20:19:11.271Z,10.43
2022-10-28T20:21:39.263Z,10.46
2022-10-28T20:24:08.205Z,10.45
2022-10-28T20:26:38.153Z,10.45
2022-10-28T20:29:07.136Z,10.43
2022-10-28T20:31:34.828Z,10.44
2022-10-28T20:34:04.166Z,10.42
2022-10-28T20:36:35.840Z,10.41
2022-10-28T20:39:10.878Z,10.40
2022-10-28T20:41:40.595Z,10.38
2022-10-28T20:44:08.814Z,10.34
2022-10-28T20:46:36.634Z,10.27
2022-10-28T20:49:04.749Z,10.27
2022-10-28T20:51:33.278Z,10.28
2022-10-28T20:54:02.062Z,10.29
2022-10-28T20:56:32.503Z,10.29
2022-10-28T20:59:00.222Z,10.33
2022-10-28T21:01:31.106Z,10.36
2022-10-28T21:04:01.667Z,10.36
2022-10-28T21:06:30.727Z,10.30
2022-10-28T21:08:59.117Z,10.29
2022-10-28T21:11:28.517Z,10.29
2022-10-28T21:13:58.581Z,10.24
2022-10-28T21:16:27.502Z,10.23
2022-10-28T21:18:55.775Z,10.24
2022-10-28T21:21:24.654Z,10.27
2022-10-28T21:23:52.105Z,10.25
2022-10-28T21:26:19.944Z,10.28
2022-10-28T21:28:52.327Z,10.32
2022-10-28T21:31:20.992Z,10.31
2022-10-28T21:36:20.059Z,10.34
2022-10-28T21:38:47.920Z,10.35
2022-10-28T21:41:19.043Z,10.35
2022-10-28T21:43:49.061Z,10.39
2022-10-28T21:46:18.206Z,10.43
2022-10-28T21:48:45.797Z,10.39
2022-10-28T21:51:16.371Z,10.35
2022-10-28T21:53:45.091Z,10.37
2022-10-28T21:56:17.707Z,10.37
2022-10-28T21:58:48.118Z,10.40
2022-10-28T22:01:19.352Z,10.43
2022-10-28T22:03:47.064Z,10.43
2022-10-28T22:06:15.055Z,10.43
2022-10-28T22:08:42.985Z,10.42
2022-10-28T22:11:14.835Z,10.42
2022-10-28T22:13:42.707Z,10.43
2022-10-28T22:16:12.640Z,10.41
2022-10-28T22:18:40.366Z,10.45
2022-10-28T22:21:19.989Z,10.45
2022-10-28T22:23:48.466Z,10.45
2022-10-28T22:26:19.254Z,10.49
2022-10-28T22:28:47.321Z,10.48
2022-10-28T22:31:18.386Z,10.50
2022-10-28T22:36:16.949Z,10.49
2022-10-28T22:38:45.344Z,10.47
2022-10-28T22:41:15.676Z,10.45
2022-10-28T22:43:45.743Z,10.43
2022-10-28T22:46:15.254Z,10.42
2022-10-28T22:48:43.491Z,10.39
2022-10-28T22:51:11.375Z,10.38
2022-10-28T22:53:39.966Z,10.40
2022-10-28T22:56:09.161Z,10.40
2022-10-28T22:58:36.922Z,10.46
2022-10-28T23:01:15.750Z,10.48
2022-10-28T23:03:48.932Z,10.52
2022-10-28T23:06:18.636Z,10.47
2022-10-28T23:08:47.491Z,10.50
2022-10-28T23:11:16.577Z,10.51
2022-10-28T23:13:44.398Z,10.53
2022-10-28T23:16:14.635Z,10.56
2022-10-28T23:18:43.591Z,10.58
2022-10-28T23:21:13.307Z,10.60
2022-10-28T23:23:41.842Z,10.60
2022-10-28T23:26:11.092Z,10.60
2022-10-28T23:28:38.933Z,10.57
2022-10-28T23:31:07.183Z,10.60
2022-10-28T23:33:35.127Z,10.60
2022-10-28T23:36:03.930Z,10.63
2022-10-28T23:38:32.187Z,10.61
2022-10-28T23:41:06.753Z,10.66
2022-10-28T23:43:34.554Z,10.68
2022-10-28T23:46:02.136Z,10.69
2022-10-28T23:48:30.196Z,10.67
2022-10-28T23:50:58.049Z,10.65
2022-10-28T23:53:25.816Z,10.65
2022-10-28T23:55:53.616Z,10.61
2022-10-28T23:58:22.634Z,10.59
